Time;durP1;ratioP1;P1;durP2;ratioP2;P2;SDS_P1;SDS_P2;PMS_P1;PMS_P2;Temp;Humidity;BMP_temperature;BMP_pressure;BME280_temperature;BME280_humidity;BME280_pressure;Samples;Min_cycle;Max_cycle;Signal;HPM_P1;HPM_P2
2021/03/03 00:00:59;;;;;;;67.30;11.93;;;;;;;0.33;100.00;102345.69;5009955;28;20025;-69
2021/03/03 00:03:24;;;;;;;72.70;13.00;;;;;;;0.29;100.00;102357.47;5011539;28;20026;-69
2021/03/03 00:05:50;;;;;;;75.30;13.50;;;;;;;0.15;100.00;102353.03;5012635;28;20091;-69
2021/03/03 00:08:15;;;;;;;80.03;12.37;;;;;;;0.25;100.00;102351.22;5013913;28;20072;-69
2021/03/03 00:10:40;;;;;;;79.23;12.00;;;;;;;0.37;100.00;102347.72;5014198;28;20549;-69
2021/03/03 00:13:06;;;;;;;101.73;13.27;;;;;;;0.49;100.00;102341.72;5015612;28;20022;-69
2021/03/03 00:15:31;;;;;;;84.07;12.83;;;;;;;0.45;100.00;102337.13;5016766;28;20019;-69
2021/03/03 00:17:57;;;;;;;81.00;12.47;;;;;;;0.39;100.00;102341.00;5017786;28;20428;-69
2021/03/03 00:20:22;;;;;;;77.53;13.67;;;;;;;0.30;100.00;102343.81;5015626;28;20459;-69
2021/03/03 00:22:48;;;;;;;103.13;12.50;;;;;;;0.25;100.00;102338.34;5019507;28;20025;-69
2021/03/03 00:25:13;;;;;;;103.73;13.87;;;;;;;0.20;100.00;102344.84;5014267;28;21707;-69
2021/03/03 00:27:39;;;;;;;133.23;15.73;;;;;;;0.39;100.00;102339.31;5015714;28;20030;-69
2021/03/03 00:30:05;;;;;;;110.90;15.23;;;;;;;0.53;100.00;102346.28;5012144;28;20089;-69
2021/03/03 00:32:30;;;;;;;85.43;13.97;;;;;;;0.30;100.00;102336.09;5015106;28;20018;-69
2021/03/03 00:34:56;;;;;;;92.63;13.30;;;;;;;0.22;100.00;102332.97;5014436;28;20277;-69
2021/03/03 00:37:21;;;;;;;95.73;13.03;;;;;;;0.08;100.00;102335.38;5013095;28;20071;-69
2021/03/03 00:39:46;;;;;;;101.33;13.17;;;;;;;0.11;100.00;102338.16;5013623;28;20033;-69
2021/03/03 00:42:12;;;;;;;118.03;15.73;;;;;;;0.10;100.00;102338.94;5013101;28;20046;-69
2021/03/03 00:44:37;;;;;;;103.50;14.93;;;;;;;0.12;100.00;102332.22;5012831;28;20344;-69
2021/03/03 00:47:03;;;;;;;85.17;14.10;;;;;;;0.18;100.00;102335.25;5012709;28;20029;-69
2021/03/03 00:49:28;;;;;;;115.23;14.27;;;;;;;0.17;100.00;102324.06;5014647;28;20386;-69
2021/03/03 00:51:54;;;;;;;79.00;12.80;;;;;;;0.16;100.00;102329.09;5016622;28;20026;-69
2021/03/03 00:54:19;;;;;;;124.70;15.67;;;;;;;0.22;100.00;102316.66;5014931;28;20030;-69
2021/03/03 00:56:45;;;;;;;119.87;14.77;;;;;;;0.17;100.00;102318.03;5013803;28;20033;-69
2021/03/03 00:59:10;;;;;;;108.73;14.90;;;;;;;0.12;100.00;102324.50;5013829;28;20029;-69
2021/03/03 01:01:35;;;;;;;99.23;14.47;;;;;;;0.02;100.00;102325.56;5012949;28;20420;-69
2021/03/03 01:04:01;;;;;;;100.67;13.13;;;;;;;-0.20;100.00;102324.84;5011707;28;20390;-69
2021/03/03 01:06:26;;;;;;;94.83;12.63;;;;;;;-0.26;100.00;102315.00;5019524;28;20414;-69
2021/03/03 01:08:52;;;;;;;97.27;13.03;;;;;;;-0.40;100.00;102311.44;5008026;28;20030;-69
2021/03/03 01:11:17;;;;;;;102.60;13.47;;;;;;;-0.38;100.00;102308.97;5020038;28;20059;-69
2021/03/03 01:13:43;;;;;;;111.53;14.13;;;;;;;-0.33;100.00;102307.66;5012940;28;20386;-69
2021/03/03 01:16:08;;;;;;;120.90;15.03;;;;;;;-0.11;100.00;102316.09;5021481;28;20021;-69
2021/03/03 01:18:34;;;;;;;100.50;14.33;;;;;;;-0.22;100.00;102311.88;5012395;28;20022;-69
2021/03/03 01:20:59;;;;;;;87.57;12.67;;;;;;;-0.36;100.00;102312.59;5020328;28;20036;-69
2021/03/03 01:23:24;;;;;;;106.30;14.10;;;;;;;-0.38;100.00;102315.00;5013422;28;20029;-69
2021/03/03 01:25:50;;;;;;;100.43;14.13;;;;;;;-0.36;100.00;102302.31;5013476;28;20026;-69
2021/03/03 01:28:15;;;;;;;89.00;12.77;;;;;;;-0.33;100.00;102308.53;5013187;28;20029;-69
2021/03/03 01:30:41;;;;;;;103.90;13.77;;;;;;;-0.28;100.00;102311.44;5012837;28;20049;-69
2021/03/03 01:33:06;;;;;;;103.27;13.10;;;;;;;-0.33;100.00;102308.53;5013402;28;20030;-69
2021/03/03 01:35:32;;;;;;;88.30;13.63;;;;;;;-0.18;100.00;102308.72;5011663;28;20068;-69
2021/03/03 01:37:58;;;;;;;96.43;15.03;;;;;;;-0.07;100.00;102300.09;5013106;28;20092;-69
2021/03/03 01:40:23;;;;;;;98.87;13.00;;;;;;;-0.09;100.00;102304.25;5013193;28;20026;-69
2021/03/03 01:42:49;;;;;;;103.47;14.13;;;;;;;-0.10;100.00;102297.31;5010632;28;20076;-69
2021/03/03 01:45:15;;;;;;;96.83;14.47;;;;;;;-0.04;100.00;102291.69;5012326;28;20065;-69
2021/03/03 01:47:40;;;;;;;81.43;14.43;;;;;;;-0.09;100.00;102288.81;5012280;28;20050;-69
2021/03/03 01:50:08;;;;;;;167.10;19.07;;;;;;;0.05;100.00;102287.19;5012713;28;20671;-69
2021/03/03 01:52:40;;;;;;;157.80;19.47;;;;;;;0.20;100.00;102285.69;5025252;28;20045;-69
2021/03/03 01:55:07;;;;;;;89.03;13.52;;;;;;;0.20;100.00;102283.09;5013662;28;20599;-69
2021/03/03 01:57:33;;;;;;;121.30;15.53;;;;;;;0.03;100.00;102273.34;5007955;28;20117;-69
2021/03/03 01:59:59;;;;;;;98.73;12.83;;;;;;;0.04;100.00;102277.69;5012042;28;20343;-69
2021/03/03 02:02:25;;;;;;;84.70;14.33;;;;;;;0.06;100.00;102277.81;5014124;28;20610;-69
2021/03/03 02:04:53;;;;;;;93.57;13.83;;;;;;;0.01;100.00;102264.63;4991828;23;20506;-75
2021/03/03 02:07:28;;;;;;;112.57;14.63;;;;;;;0.36;100.00;102264.44;4973962;28;20289;-75
2021/03/03 02:10:18;;;;;;;100.80;15.47;;;;;;;0.58;100.00;102261.66;4972206;28;20284;-75
2021/03/03 02:12:58;;;;;;;62.33;11.67;;;;;;;0.40;100.00;102263.91;4967124;28;20286;-76
2021/03/03 02:15:25;;;;;;;71.43;12.40;;;;;;;0.09;100.00;102262.56;4971469;28;20282;-76
2021/03/03 02:17:53;;;;;;;104.00;14.30;;;;;;;-0.10;100.00;102256.19;4973656;28;20296;-76
2021/03/03 02:20:24;;;;;;;67.33;12.07;;;;;;;-0.32;100.00;102250.31;4972774;28;20789;-76
2021/03/03 02:23:02;;;;;;;67.10;11.40;;;;;;;-0.37;100.00;102254.22;4972566;28;20428;-75
2021/03/03 02:25:30;;;;;;;66.60;11.63;;;;;;;-0.45;100.00;102251.13;4969916;28;20343;-75
2021/03/03 02:28:00;;;;;;;70.93;11.03;;;;;;;-0.55;100.00;102247.81;4973533;28;20285;-75
2021/03/03 02:30:27;;;;;;;73.17;11.20;;;;;;;-0.58;100.00;102255.31;4973322;28;20277;-75
2021/03/03 02:32:53;;;;;;;73.37;11.50;;;;;;;-0.65;100.00;102242.00;4972346;28;20285;-75
2021/03/03 02:35:20;;;;;;;81.00;12.97;;;;;;;-0.65;100.00;102244.56;4972845;28;20337;-75
2021/03/03 02:37:46;;;;;;;90.13;12.27;;;;;;;-0.66;100.00;102240.22;4970490;28;20286;-75
2021/03/03 02:40:12;;;;;;;90.90;12.87;;;;;;;-0.54;100.00;102234.16;4972406;28;20290;-75
2021/03/03 02:42:40;;;;;;;74.83;11.73;;;;;;;-0.69;100.00;102237.44;4973051;28;20289;-75
2021/03/03 02:45:12;;;;;;;82.23;12.90;;;;;;;-0.72;100.00;102234.66;4972156;28;20793;-75
2021/03/03 02:47:39;;;;;;;74.95;11.75;;;;;;;-0.96;100.00;102222.63;4973673;28;20389;-75
2021/03/03 02:50:07;;;;;;;84.10;11.23;;;;;;;-1.04;100.00;102226.31;4972719;28;20089;-75
2021/03/03 02:52:55;;;;;;;70.43;11.70;;;;;;;-1.07;100.00;102223.53;4972751;28;20643;-75
2021/03/03 02:55:29;;;;;;;52.03;10.17;;;;;;;-1.14;100.00;102221.28;4970259;28;20278;-75
2021/03/03 02:57:56;;;;;;;40.93;7.57;;;;;;;-1.19;100.00;102224.41;4973161;28;20750;-75
2021/03/03 03:00:32;;;;;;;54.87;8.40;;;;;;;-1.15;100.00;102220.38;4972538;28;20278;-75
2021/03/03 03:03:03;;;;;;;70.10;10.40;;;;;;;-1.21;100.00;102236.25;4972971;28;20328;-75
2021/03/03 03:05:31;;;;;;;68.13;10.97;;;;;;;-1.26;100.00;102227.28;4973154;28;20306;-75
2021/03/03 03:08:00;;;;;;;57.73;9.97;;;;;;;-1.32;100.00;102226.84;4978876;28;20300;-75
2021/03/03 03:10:26;;;;;;;70.47;11.07;;;;;;;-1.28;100.00;102221.16;4971621;28;20369;-75
2021/03/03 03:12:53;;;;;;;72.13;10.60;;;;;;;-1.27;100.00;102215.25;4973062;28;20313;-75
2021/03/03 03:15:23;;;;;;;64.97;9.40;;;;;;;-1.24;100.00;102220.59;4972351;28;20364;-75
2021/03/03 03:17:54;;;;;;;56.87;10.23;;;;;;;-1.25;100.00;102213.69;4971696;28;20286;-76
2021/03/03 03:20:20;;;;;;;71.90;9.73;;;;;;;-1.31;100.00;102220.94;4966605;28;20356;-76
2021/03/03 03:22:47;;;;;;;66.97;10.47;;;;;;;-1.40;100.00;102212.56;4972539;28;20603;-76
2021/03/03 03:25:14;;;;;;;51.87;9.53;;;;;;;-1.27;100.00;102220.38;4973088;28;20297;-76
2021/03/03 03:27:42;;;;;;;71.80;12.03;;;;;;;-1.14;100.00;102222.16;4970942;28;20317;-76
2021/03/03 03:30:11;;;;;;;57.50;10.97;;;;;;;-1.23;100.00;102222.38;4971851;28;20758;-76
2021/03/03 03:32:38;;;;;;;48.73;9.77;;;;;;;-1.26;100.00;102217.03;4971320;28;20286;-75
2021/03/03 03:35:04;;;;;;;72.43;10.37;;;;;;;-1.17;100.00;102221.06;4971256;28;20285;-76
2021/03/03 03:37:30;;;;;;;76.17;11.90;;;;;;;-1.13;100.00;102210.22;4971516;28;20386;-75
2021/03/03 03:39:55;;;;;;;85.87;12.40;;;;;;;-0.99;100.00;102202.75;4973014;28;20308;-75
2021/03/03 03:42:23;;;;;;;105.00;13.47;;;;;;;-0.91;100.00;102200.72;4971743;28;20301;-75
2021/03/03 03:44:50;;;;;;;106.00;13.50;;;;;;;-0.76;100.00;102196.69;4972706;28;20395;-74
2021/03/03 03:47:17;;;;;;;97.47;12.77;;;;;;;-0.58;100.00;102198.78;4970349;28;20821;-73
2021/03/03 03:49:44;;;;;;;113.20;14.03;;;;;;;-0.37;100.00;102198.59;4972245;28;20336;-73
2021/03/03 03:52:14;;;;;;;113.77;14.67;;;;;;;-0.18;100.00;102185.34;4970929;28;20762;-73
2021/03/03 03:54:39;;;;;;;128.37;15.53;;;;;;;-0.07;100.00;102194.69;4972822;28;20282;-73
2021/03/03 03:57:05;;;;;;;121.63;14.50;;;;;;;0.05;100.00;102204.03;4974246;28;20809;-73
2021/03/03 03:59:30;;;;;;;103.00;12.90;;;;;;;-0.08;100.00;102208.31;4972298;28;20058;-73
2021/03/03 04:01:55;;;;;;;82.73;12.40;;;;;;;-0.18;100.00;102205.91;4972406;28;20363;-73
2021/03/03 04:04:21;;;;;;;61.63;11.73;;;;;;;-0.38;100.00;102207.09;4987150;28;20086;-74
2021/03/03 04:06:46;;;;;;;76.47;12.10;;;;;;;-0.60;100.00;102202.16;4972356;28;20034;-74
2021/03/03 04:09:12;;;;;;;70.87;11.17;;;;;;;-0.75;100.00;102208.72;4970911;28;20130;-74
2021/03/03 04:11:37;;;;;;;64.37;11.67;;;;;;;-0.94;100.00;102210.78;4971154;28;20043;-74
2021/03/03 04:14:08;;;;;;;67.40;11.33;;;;;;;-0.95;100.00;102209.00;4972382;28;20037;-74
2021/03/03 04:16:33;;;;;;;82.20;12.37;;;;;;;-0.97;100.00;102203.78;4969248;28;20035;-75
2021/03/03 04:18:59;;;;;;;68.50;11.07;;;;;;;-1.08;100.00;102196.06;4971155;28;20318;-76
2021/03/03 04:21:24;;;;;;;88.27;11.83;;;;;;;-1.08;100.00;102201.19;4971229;28;20066;-76
2021/03/03 04:23:49;;;;;;;91.30;13.17;;;;;;;-0.93;100.00;102202.31;4971936;28;20090;-76
2021/03/03 04:26:15;;;;;;;91.77;12.20;;;;;;;-0.84;100.00;102199.50;4969677;28;20124;-76
2021/03/03 04:28:40;;;;;;;77.43;11.60;;;;;;;-0.96;100.00;102207.22;4972434;28;20041;-76
2021/03/03 04:31:06;;;;;;;90.30;12.03;;;;;;;-1.00;100.00;102205.19;4969659;28;20034;-77
2021/03/03 04:33:32;;;;;;;76.90;10.40;;;;;;;-1.05;100.00;102186.91;4971408;28;20379;-76
2021/03/03 04:35:57;;;;;;;76.93;9.97;;;;;;;-1.05;100.00;102191.16;4970466;28;20090;-76
2021/03/03 04:38:23;;;;;;;72.67;10.10;;;;;;;-1.03;100.00;102189.59;4972392;28;20046;-76
2021/03/03 04:40:48;;;;;;;79.93;10.63;;;;;;;-1.08;100.00;102189.25;4970556;28;20041;-75
2021/03/03 04:43:14;;;;;;;66.77;10.73;;;;;;;-0.98;100.00;102189.13;4971616;28;20043;-76
2021/03/03 04:45:39;;;;;;;87.17;11.23;;;;;;;-1.08;100.00;102191.84;4968486;28;20039;-76
2021/03/03 04:48:05;;;;;;;79.23;12.00;;;;;;;-1.02;100.00;102183.66;4973149;28;20133;-76
2021/03/03 04:50:30;;;;;;;61.10;10.53;;;;;;;-1.07;100.00;102188.47;4974753;28;20355;-77
2021/03/03 04:52:56;;;;;;;73.07;10.90;;;;;;;-1.11;100.00;102185.56;4974549;28;20286;-77
2021/03/03 04:55:21;;;;;;;51.70;9.67;;;;;;;-1.20;100.00;102186.69;4975103;28;20026;-76
2021/03/03 04:57:47;;;;;;;59.80;10.50;;;;;;;-1.24;100.00;102184.66;4974089;28;20034;-76
2021/03/03 05:00:13;;;;;;;74.43;10.20;;;;;;;-1.21;100.00;102184.91;4973093;28;20045;-76
2021/03/03 05:02:38;;;;;;;65.23;10.50;;;;;;;-1.20;100.00;102173.88;4976067;28;20039;-76
2021/03/03 05:05:04;;;;;;;70.70;11.40;;;;;;;-1.17;100.00;102180.88;4974303;28;20134;-76
2021/03/03 05:07:29;;;;;;;73.33;12.37;;;;;;;-1.14;100.00;102175.06;4974374;28;20037;-76
2021/03/03 05:09:55;;;;;;;76.17;11.13;;;;;;;-0.96;100.00;102176.41;4972863;28;20847;-76
2021/03/03 05:12:20;;;;;;;77.93;11.37;;;;;;;-0.95;100.00;102178.19;4973764;28;20113;-73
2021/03/03 05:14:46;;;;;;;83.90;13.77;;;;;;;-0.95;100.00;102175.63;4974743;28;20050;-74
2021/03/03 05:17:11;;;;;;;79.07;12.70;;;;;;;-0.86;100.00;102171.13;4975047;28;20114;-74
2021/03/03 05:19:36;;;;;;;78.50;12.90;;;;;;;-0.81;100.00;102172.38;4974317;28;20459;-74
2021/03/03 05:22:02;;;;;;;85.43;14.27;;;;;;;-0.76;100.00;102157.28;4972337;28;20482;-74
2021/03/03 05:24:27;;;;;;;54.30;12.43;;;;;;;-0.68;100.00;102158.72;4973768;28;20467;-74
2021/03/03 05:26:53;;;;;;;72.23;12.63;;;;;;;-0.62;100.00;102165.16;4973965;28;20022;-74
2021/03/03 05:29:18;;;;;;;47.00;10.67;;;;;;;-0.74;100.00;102168.53;4974480;28;20384;-73
2021/03/03 05:31:44;;;;;;;31.47;8.47;;;;;;;-0.89;100.00;102165.78;4972165;28;20035;-74
2021/03/03 05:34:09;;;;;;;33.20;7.70;;;;;;;-1.00;100.00;102166.69;4973549;28;20487;-74
2021/03/03 05:36:35;;;;;;;31.67;7.43;;;;;;;-1.11;100.00;102160.78;4973864;28;20019;-74
2021/03/03 05:39:00;;;;;;;34.80;7.73;;;;;;;-1.14;100.00;102159.69;4975094;28;20081;-74
2021/03/03 05:41:26;;;;;;;39.47;8.50;;;;;;;-1.12;100.00;102148.75;4973214;28;20411;-74
2021/03/03 05:43:53;;;;;;;47.40;9.20;;;;;;;-1.11;100.00;102154.75;4973545;28;20039;-74
2021/03/03 05:46:19;;;;;;;83.30;12.40;;;;;;;-1.01;100.00;102149.50;4973779;28;20282;-74
2021/03/03 05:49:01;;;;;;;90.23;13.63;;;;;;;-0.71;100.00;102149.13;4973592;28;20320;-74
2021/03/03 05:51:29;;;;;;;77.47;12.20;;;;;;;-0.61;100.00;102141.28;4974643;28;20762;-74
2021/03/03 05:53:55;;;;;;;91.70;13.53;;;;;;;-0.50;100.00;102143.66;4973798;28;20361;-74
2021/03/03 05:56:22;;;;;;;68.23;12.17;;;;;;;-0.41;100.00;102144.31;4977415;28;20319;-74
2021/03/03 05:58:48;;;;;;;61.80;11.20;;;;;;;-0.33;100.00;102162.06;4971675;28;20329;-74
2021/03/03 06:01:14;;;;;;;50.87;11.43;;;;;;;-0.44;100.00;102150.13;4972426;28;20286;-74
2021/03/03 06:03:40;;;;;;;52.07;10.40;;;;;;;-0.58;100.00;102152.53;4972884;28;20070;-77
2021/03/03 06:06:06;;;;;;;42.93;10.27;;;;;;;-0.75;100.00;102149.66;4974405;28;20447;-77
2021/03/03 06:08:32;;;;;;;57.33;10.70;;;;;;;-0.84;100.00;102146.47;4973950;28;20286;-74
2021/03/03 06:10:59;;;;;;;51.63;10.77;;;;;;;-0.91;100.00;102144.25;4971377;28;20286;-74
2021/03/03 06:13:25;;;;;;;64.90;12.03;;;;;;;-0.88;100.00;102144.47;4973598;28;20089;-74
2021/03/03 06:15:51;;;;;;;53.80;11.87;;;;;;;-0.92;100.00;102142.47;4974428;28;20278;-74
2021/03/03 06:18:18;;;;;;;73.43;12.17;;;;;;;-0.88;100.00;102150.47;4972860;28;20686;-74
2021/03/03 06:20:47;;;;;;;62.90;11.77;;;;;;;-0.86;100.00;102148.03;4971430;28;20045;-74
2021/03/03 06:23:17;;;;;;;72.80;12.03;;;;;;;-0.80;100.00;102143.34;4974229;28;20270;-74
2021/03/03 06:25:44;;;;;;;66.13;12.33;;;;;;;-0.73;100.00;102142.06;4976746;28;20301;-74
2021/03/03 06:28:10;;;;;;;80.67;12.47;;;;;;;-0.63;100.00;102147.97;4978195;28;20277;-74
2021/03/03 06:30:36;;;;;;;71.67;13.20;;;;;;;-0.51;100.00;102139.31;4974100;28;20312;-74
2021/03/03 06:33:05;;;;;;;72.10;11.97;;;;;;;-0.35;100.00;102142.19;4973882;28;20739;-74
2021/03/03 06:35:47;;;;;;;54.43;10.73;;;;;;;-0.31;100.00;102146.75;4972874;28;20507;-74
2021/03/03 06:38:16;;;;;;;49.80;10.52;;;;;;;-0.32;100.00;102144.94;4973288;28;20285;-74
2021/03/03 06:40:50;;;;;;;48.33;9.37;;;;;;;-0.38;100.00;102147.09;4973218;28;20429;-73
2021/03/03 06:43:19;;;;;;;42.47;10.30;;;;;;;-0.40;100.00;102147.00;4973750;28;20743;-74
2021/03/03 06:45:44;;;;;;;36.47;9.50;;;;;;;-0.42;100.00;102153.69;4970166;28;20333;-74
2021/03/03 06:48:10;;;;;;;45.37;9.83;;;;;;;-0.35;100.00;102144.75;4973153;28;20286;-73
2021/03/03 06:50:38;;;;;;;42.00;9.30;;;;;;;-0.31;100.00;102134.78;4971312;28;20066;-74
2021/03/03 06:53:03;;;;;;;46.87;9.90;;;;;;;-0.25;100.00;102135.97;4970400;28;20054;-74
2021/03/03 06:55:48;;;;;;;40.13;9.20;;;;;;;-0.14;100.00;102130.75;4971703;28;20409;-74
2021/03/03 06:58:31;;;;;;;46.63;10.57;;;;;;;-0.01;100.00;102123.09;4972478;28;20038;-74
2021/03/03 07:00:58;;;;;;;54.17;10.10;;;;;;;0.17;100.00;102126.00;4971960;28;20274;-74
2021/03/03 07:03:41;;;;;;;45.07;10.37;;;;;;;0.38;100.00;102126.53;4971232;28;20278;-74
2021/03/03 07:06:07;;;;;;;36.97;9.83;;;;;;;0.46;100.00;102138.19;4971258;28;20297;-74
2021/03/03 07:08:32;;;;;;;48.57;11.07;;;;;;;0.48;100.00;102139.19;4972370;28;20754;-74
2021/03/03 07:10:58;;;;;;;40.00;9.80;;;;;;;0.62;100.00;102128.94;4971399;28;20019;-74
2021/03/03 07:13:40;;;;;;;45.40;9.17;;;;;;;0.67;100.00;102131.00;4972392;28;20080;-74
2021/03/03 07:16:09;;;;;;;33.33;7.47;;;;;;;0.76;100.00;102138.41;4968919;28;20023;-74
2021/03/03 07:18:38;;;;;;;28.60;7.90;;;;;;;0.79;100.00;102138.59;4968839;28;20369;-74
2021/03/03 07:21:06;;;;;;;29.00;7.77;;;;;;;0.87;100.00;102145.16;4982986;28;20271;-74
2021/03/03 07:23:50;;;;;;;34.97;8.63;;;;;;;0.93;100.00;102153.25;4968569;28;20274;-74
2021/03/03 07:26:18;;;;;;;24.43;7.83;;;;;;;1.07;100.00;102146.41;4970278;28;20285;-74
2021/03/03 07:28:44;;;;;;;32.33;8.13;;;;;;;1.22;100.00;102143.91;4972117;28;20286;-74
2021/03/03 07:31:12;;;;;;;28.77;7.83;;;;;;;1.29;100.00;102139.22;4972788;28;20282;-74
2021/03/03 07:33:38;;;;;;;20.57;7.93;;;;;;;1.42;100.00;102133.13;4972907;28;20278;-74
2021/03/03 07:36:05;;;;;;;25.03;7.87;;;;;;;1.61;100.00;102142.91;4972763;28;20282;-74
2021/03/03 07:38:33;;;;;;;26.77;7.47;;;;;;;1.61;100.00;102138.63;4973110;28;20626;-74
2021/03/03 07:41:13;;;;;;;22.10;7.37;;;;;;;1.77;100.00;102140.44;4972661;28;20762;-74
2021/03/03 07:43:44;;;;;;;22.10;7.60;;;;;;;2.02;100.00;102137.63;4972710;28;20583;-74
2021/03/03 07:46:09;;;;;;;18.80;6.87;;;;;;;2.30;100.00;102143.63;4972512;28;20292;-74
2021/03/03 07:48:36;;;;;;;24.57;7.63;;;;;;;2.50;100.00;102134.44;4972888;28;20778;-74
2021/03/03 07:51:06;;;;;;;24.37;7.50;;;;;;;2.60;100.00;102141.00;4972374;28;20062;-73
2021/03/03 07:53:37;;;;;;;20.97;7.60;;;;;;;2.81;100.00;102137.06;4972828;28;20317;-74
2021/03/03 07:56:06;;;;;;;18.53;7.47;;;;;;;2.87;100.00;102142.56;4972677;28;20329;-74
2021/03/03 07:58:32;;;;;;;19.17;7.13;;;;;;;3.07;100.00;102145.38;4986931;28;20262;-74
2021/03/03 08:00:58;;;;;;;18.20;7.13;;;;;;;3.29;100.00;102143.16;4972733;28;20401;-74
2021/03/03 08:03:43;;;;;;;15.30;6.47;;;;;;;4.05;100.00;102148.88;4972589;28;20022;-74
2021/03/03 08:06:36;;;;;;;15.33;5.20;;;;;;;4.42;100.00;102138.69;4972503;28;20041;-74
2021/03/03 08:09:04;;;;;;;13.37;5.70;;;;;;;4.38;100.00;102149.72;4961651;28;20063;-74
2021/03/03 08:11:44;;;;;;;14.53;5.37;;;;;;;4.65;100.00;102148.47;4972656;28;20502;-74
2021/03/03 08:14:37;;;;;;;15.00;5.13;;;;;;;5.15;100.00;102151.69;4973034;28;20455;-74
2021/03/03 08:17:08;;;;;;;;;;;;;;;5.76;100.00;102154.50;4972519;28;20042;-74
2021/03/03 08:19:56;;;;;;;14.67;4.27;;;;;;;7.02;100.00;102152.06;4972675;28;20025;-74
2021/03/03 08:22:56;;;;;;;11.40;4.43;;;;;;;7.98;100.00;102152.16;4974265;28;20041;-73
2021/03/03 08:25:42;;;;;;;12.90;4.57;;;;;;;8.19;100.00;102147.72;4973927;28;20097;-73
2021/03/03 08:28:27;;;;;;;12.77;4.90;;;;;;;7.66;100.00;102138.00;4964067;28;20037;-73
2021/03/03 08:31:11;;;;;;;9.37;3.90;;;;;;;7.51;100.00;102133.13;4976084;28;20519;-73
2021/03/03 08:33:41;;;;;;;11.57;4.73;;;;;;;7.37;100.00;102134.31;4976463;28;20422;-73
2021/03/03 08:36:11;;;;;;;11.73;5.17;;;;;;;7.19;100.00;102129.31;4976151;28;20498;-74
2021/03/03 08:38:37;;;;;;;15.27;5.10;;;;;;;6.74;100.00;102131.00;4975634;28;20050;-74
2021/03/03 08:41:14;;;;;;;16.23;5.87;;;;;;;6.45;100.00;102130.69;4976042;28;20132;-74
2021/03/03 08:43:44;;;;;;;11.10;4.47;;;;;;;6.47;100.00;102139.44;4975961;28;20026;-74
2021/03/03 08:46:19;;;;;;;10.40;4.53;;;;;;;6.78;100.00;102135.47;4975537;28;20031;-74
2021/03/03 08:48:53;;;;;;;12.40;5.03;;;;;;;7.29;100.00;102133.16;4975636;28;20034;-73
2021/03/03 08:51:22;;;;;;;13.13;5.00;;;;;;;7.32;100.00;102135.88;4975835;28;20026;-74
2021/03/03 08:53:50;;;;;;;10.33;4.73;;;;;;;7.09;100.00;102136.69;4975772;28;20027;-74
2021/03/03 08:56:38;;;;;;;10.80;5.00;;;;;;;6.64;100.00;102131.44;4975247;28;20029;-74
2021/03/03 08:59:33;;;;;;;14.30;5.23;;;;;;;6.44;100.00;102123.72;4975102;28;20114;-75
2021/03/03 09:02:15;;;;;;;9.57;4.90;;;;;;;6.21;100.00;102129.69;4975093;28;20033;-74
2021/03/03 09:04:51;;;;;;;13.23;4.90;;;;;;;6.27;100.00;102118.63;4975348;28;20210;-75
2021/03/03 09:07:22;;;;;;;15.73;5.80;;;;;;;6.37;100.00;102120.81;4975452;28;20094;-74
2021/03/03 09:09:50;;;;;;;14.50;5.57;;;;;;;6.59;100.00;102117.38;4975318;28;20023;-74
2021/03/03 09:12:21;;;;;;;14.27;5.37;;;;;;;6.85;100.00;102106.31;4975577;28;20022;-74
2021/03/03 09:14:48;;;;;;;12.83;5.73;;;;;;;7.31;100.00;102102.88;4975162;28;20037;-74
2021/03/03 09:17:21;;;;;;;14.17;5.50;;;;;;;7.81;100.00;102107.31;4975093;28;20078;-74
2021/03/03 09:19:46;;;;;;;15.10;5.75;;;;;;;8.32;100.00;102101.22;4973863;28;20034;-75
2021/03/03 09:22:24;;;;;;;12.83;6.23;;;;;;;8.87;100.00;102103.03;4972328;28;20030;-75
2021/03/03 09:25:12;;;;;;;11.97;5.27;;;;;;;9.00;98.90;102102.59;4974028;28;20535;-74
2021/03/03 09:27:40;;;;;;;12.53;5.30;;;;;;;8.80;95.33;102095.00;4975193;28;20034;-74
2021/03/03 09:30:07;;;;;;;12.27;5.33;;;;;;;8.94;98.87;102094.56;4974483;28;20023;-74
2021/03/03 09:32:33;;;;;;;14.93;5.43;;;;;;;9.36;99.63;102101.06;4973944;28;20027;-74
2021/03/03 09:35:02;;;;;;;11.50;5.63;;;;;;;9.24;98.83;102092.00;4974941;28;20027;-74
2021/03/03 09:37:36;;;;;;;13.87;4.73;;;;;;;9.18;98.31;102100.50;4974802;28;20034;-74
2021/03/03 09:40:03;;;;;;;12.57;5.60;;;;;;;8.84;97.91;102102.94;4974819;28;20387;-74
2021/03/03 09:42:37;;;;;;;13.90;5.80;;;;;;;8.76;100.00;102103.59;4974745;28;20030;-74
2021/03/03 09:45:04;;;;;;;14.10;6.17;;;;;;;8.62;100.00;102097.06;4974967;28;20383;-74
2021/03/03 09:47:34;;;;;;;16.40;5.70;;;;;;;8.72;100.00;102093.91;4974673;28;20027;-74
2021/03/03 09:50:01;;;;;;;15.47;6.00;;;;;;;8.93;100.00;102092.78;4980244;28;20030;-74
2021/03/03 09:52:44;;;;;;;13.43;5.63;;;;;;;9.26;100.00;102093.81;4974452;28;20042;-74
2021/03/03 09:55:12;;;;;;;16.90;6.15;;;;;;;9.39;100.00;102088.09;4974187;28;20042;-74
2021/03/03 09:57:38;;;;;;;16.90;5.93;;;;;;;9.62;100.00;102087.84;4974675;28;20070;-74
2021/03/03 10:00:08;;;;;;;14.77;6.10;;;;;;;9.65;98.65;102087.94;4974493;28;20105;-74
2021/03/03 10:02:34;;;;;;;17.93;6.13;;;;;;;9.84;97.73;102085.00;4974231;28;20435;-74
2021/03/03 10:05:02;;;;;;;15.03;5.70;;;;;;;9.97;92.40;102080.97;4974445;28;20142;-74
2021/03/03 10:07:28;;;;;;;15.97;6.63;;;;;;;10.05;90.63;102078.53;4974537;28;20039;-75
2021/03/03 10:09:58;;;;;;;19.50;6.43;;;;;;;10.23;88.22;102084.28;4974533;28;20490;-75
2021/03/03 10:12:35;;;;;;;17.40;6.63;;;;;;;10.40;83.98;102082.09;4973758;28;20062;-75
2021/03/03 10:15:10;;;;;;;17.90;6.60;;;;;;;10.65;80.35;102083.56;4974310;28;20030;-75
2021/03/03 10:17:47;;;;;;;19.33;6.97;;;;;;;10.69;80.99;102082.78;4974066;28;20043;-75
2021/03/03 10:20:37;;;;;;;18.03;6.57;;;;;;;10.78;80.00;102082.97;4974343;28;20436;-75
2021/03/03 10:23:17;;;;;;;15.93;7.03;;;;;;;10.79;78.71;102079.56;4967714;28;20084;-75
2021/03/03 10:25:48;;;;;;;18.97;7.60;;;;;;;10.88;79.97;102078.84;4973708;28;20060;-74
2021/03/03 10:28:20;;;;;;;18.43;7.30;;;;;;;10.96;78.14;102090.38;4974320;28;20038;-74
2021/03/03 10:30:50;;;;;;;23.45;7.35;;;;;;;11.05;76.68;102091.47;4974146;28;20514;-75
2021/03/03 10:33:26;;;;;;;21.17;7.20;;;;;;;10.67;78.71;102088.00;4973975;28;20565;-75
2021/03/03 10:35:53;;;;;;;18.37;7.40;;;;;;;10.55;77.59;102085.97;4962262;28;20027;-75
2021/03/03 10:38:21;;;;;;;19.13;7.87;;;;;;;10.72;76.90;102088.09;4974031;28;20427;-75
2021/03/03 10:40:48;;;;;;;16.77;6.70;;;;;;;10.65;78.75;102080.94;4973547;28;20313;-75
2021/03/03 10:43:16;;;;;;;17.87;7.60;;;;;;;10.76;79.17;102082.06;4973280;28;20023;-74
2021/03/03 10:45:42;;;;;;;20.03;7.60;;;;;;;10.90;79.10;102080.66;4973311;28;20332;-75
2021/03/03 10:48:08;;;;;;;17.60;7.00;;;;;;;10.96;76.08;102078.19;4973893;28;20076;-75
2021/03/03 10:50:49;;;;;;;21.47;7.97;;;;;;;10.99;76.97;102087.81;4973684;28;20153;-75
2021/03/03 10:53:15;;;;;;;18.23;7.03;;;;;;;10.91;77.36;102082.44;4973114;28;20030;-75
2021/03/03 10:55:41;;;;;;;22.90;7.17;;;;;;;10.96;78.55;102083.41;4973616;28;20038;-75
2021/03/03 10:58:11;;;;;;;23.10;7.60;;;;;;;11.06;76.79;102077.53;4973173;28;20105;-75
2021/03/03 11:01:00;;;;;;;23.73;8.20;;;;;;;11.26;77.08;102077.06;4973230;28;20042;-75
2021/03/03 11:03:27;;;;;;;21.30;8.23;;;;;;;11.24;76.04;102077.03;4960797;28;20034;-75
2021/03/03 11:05:57;;;;;;;20.13;7.43;;;;;;;11.66;79.13;102074.41;4973412;28;20055;-75
2021/03/03 11:08:25;;;;;;;21.07;8.00;;;;;;;11.58;76.44;102073.38;4973714;28;20027;-75
2021/03/03 11:10:51;;;;;;;19.63;7.73;;;;;;;11.78;75.86;102075.50;4973256;28;20034;-75
2021/03/03 11:13:17;;;;;;;18.30;7.10;;;;;;;11.74;76.04;102067.53;4972708;28;20064;-74
2021/03/03 11:15:44;;;;;;;20.67;7.37;;;;;;;11.79;76.48;102066.78;4972830;28;20109;-74
2021/03/03 11:18:10;;;;;;;21.43;7.93;;;;;;;11.60;76.75;102068.16;4973518;28;20031;-74